createdAt,value
2018-11-12T00:00:33.747Z,24.20
2018-11-12T00:03:27.450Z,24.20
2018-11-12T00:06:21.387Z,24.20
2018-11-12T00:09:15.529Z,24.20
2018-11-12T00:12:09.560Z,24.20
2018-11-12T00:15:03.224Z,24.20
2018-11-12T00:17:59.974Z,24.20
2018-11-12T00:20:56.646Z,24.20
2018-11-12T00:23:50.379Z,24.20
2018-11-12T00:26:44.675Z,24.20
2018-11-12T00:29:39.586Z,24.20
2018-11-12T00:32:33.658Z,24.20
2018-11-12T00:35:27.635Z,24.20
2018-11-12T00:38:21.545Z,24.20
2018-11-12T00:41:15.278Z,24.10
2018-11-12T00:44:09.368Z,24.10
2018-11-12T00:47:02.963Z,24.10
2018-11-12T00:49:57.120Z,24.10
2018-11-12T00:52:50.929Z,24.10
2018-11-12T00:55:44.664Z,24.10
2018-11-12T00:58:38.648Z,24.00
2018-11-12T01:01:32.451Z,24.10
2018-11-12T01:04:29.090Z,24.00
2018-11-12T01:07:23.144Z,24.10
2018-11-12T01:10:18.286Z,24.10
2018-11-12T01:13:12.118Z,24.10
2018-11-12T01:16:08.615Z,24.10
2018-11-12T01:19:02.311Z,24.10
2018-11-12T01:21:56.145Z,24.10
2018-11-12T01:24:50.077Z,24.20
2018-11-12T01:27:44.407Z,24.20
2018-11-12T01:30:38.329Z,24.20
2018-11-12T01:33:31.749Z,24.20
2018-11-12T01:36:25.525Z,24.20
2018-11-12T01:39:19.153Z,24.20
2018-11-12T01:42:13.521Z,24.20
2018-11-12T01:45:11.150Z,24.20
2018-11-12T01:48:05.093Z,24.20
2018-11-12T01:50:58.865Z,24.20
2018-11-12T01:53:52.846Z,24.20
2018-11-12T01:56:46.958Z,24.20
2018-11-12T01:59:41.519Z,24.30
2018-11-12T02:02:35.807Z,24.20
2018-11-12T02:05:29.989Z,24.20
2018-11-12T02:08:24.061Z,24.20
2018-11-12T02:11:18.154Z,24.30
2018-11-12T02:14:12.232Z,24.30
2018-11-12T02:17:05.833Z,24.30
2018-11-12T02:19:59.567Z,24.30
2018-11-12T02:22:56.422Z,24.30
2018-11-12T02:25:50.326Z,24.30
2018-11-12T02:28:43.843Z,24.40
2018-11-12T02:31:38.869Z,24.40
2018-11-12T02:34:33.053Z,24.40
2018-11-12T02:37:27.444Z,24.40
2018-11-12T02:40:21.524Z,24.40
2018-11-12T02:43:15.334Z,24.40
2018-11-12T02:46:09.061Z,24.40
2018-11-12T02:49:02.847Z,24.40
2018-11-12T02:51:56.513Z,24.40
2018-11-12T02:54:50.487Z,24.50
2018-11-12T02:57:45.404Z,24.50
2018-11-12T03:00:39.474Z,24.50
2018-11-12T03:03:33.244Z,24.50
2018-11-12T03:06:27.223Z,24.50
2018-11-12T03:09:21.302Z,24.50
2018-11-12T03:12:15.364Z,24.50
2018-11-12T03:15:09.999Z,24.50
2018-11-12T03:18:04.047Z,24.50
2018-11-12T03:20:58.038Z,24.50
2018-11-12T03:23:55.090Z,24.60
2018-11-12T03:26:49.179Z,24.60
2018-11-12T03:29:43.257Z,24.60
2018-11-12T03:32:37.342Z,24.60
2018-11-12T03:35:31.048Z,24.60
2018-11-12T03:38:25.503Z,24.60
2018-11-12T03:41:19.781Z,24.50
2018-11-12T03:44:13.563Z,24.50
2018-11-12T03:47:08.360Z,24.50
2018-11-12T03:50:02.549Z,24.40
2018-11-12T03:52:56.210Z,24.40
2018-11-12T03:55:50.187Z,24.40
2018-11-12T03:58:43.703Z,24.40
2018-11-12T04:01:49.626Z,24.50
2018-11-12T04:04:43.696Z,24.50
2018-11-12T04:07:37.376Z,24.50
2018-11-12T04:10:31.764Z,24.50
2018-11-12T04:13:25.945Z,24.50
2018-11-12T04:16:22.069Z,24.60
2018-11-12T04:19:15.748Z,24.60
2018-11-12T04:22:09.842Z,24.60
2018-11-12T04:25:03.502Z,24.60
2018-11-12T04:30:48.996Z,24.60
2018-11-12T04:33:42.572Z,24.60
2018-11-12T04:36:35.942Z,24.60
2018-11-12T04:39:29.802Z,24.60
2018-11-12T04:42:23.780Z,24.70
2018-11-12T04:45:18.599Z,24.40
2018-11-12T04:48:15.975Z,24.20
2018-11-12T04:51:06.127Z,24.00
2018-11-12T04:54:01.651Z,23.90
2018-11-12T04:56:59.024Z,23.70
2018-11-12T04:59:52.762Z,23.50
2018-11-12T05:02:46.859Z,23.30
2018-11-12T05:05:40.393Z,23.20
2018-11-12T05:08:34.354Z,23.10
2018-11-12T05:11:29.276Z,23.00
2018-11-12T05:14:33.200Z,22.90
2018-11-12T05:17:30.172Z,22.80
2018-11-12T05:20:34.803Z,22.70
2018-11-12T05:23:40.165Z,22.70
2018-11-12T05:26:38.713Z,22.50
2018-11-12T05:29:36.145Z,22.60
2018-11-12T05:32:32.960Z,22.70
2018-11-12T05:35:33.981Z,23.00
2018-11-12T05:38:35.439Z,23.20
2018-11-12T05:41:36.405Z,23.40
2018-11-12T05:44:38.018Z,23.60
2018-11-12T05:47:58.399Z,23.70
2018-11-12T05:51:06.743Z,23.70
2018-11-12T05:54:01.319Z,23.90
2018-11-12T05:57:05.758Z,23.90
2018-11-12T05:59:52.958Z,24.00
2018-11-12T06:02:43.607Z,24.10
2018-11-12T06:05:37.603Z,24.20
2018-11-12T06:08:32.453Z,24.20
2018-11-12T06:11:29.385Z,24.30
2018-11-12T06:14:33.937Z,24.40
2018-11-12T06:17:29.400Z,24.40
2018-11-12T06:20:29.194Z,24.40
2018-11-12T06:23:23.368Z,24.50
2018-11-12T06:26:18.443Z,24.50
2018-11-12T06:29:12.639Z,24.50
2018-11-12T06:32:18.845Z,24.50
2018-11-12T06:35:15.621Z,24.60
2018-11-12T06:38:09.825Z,24.60
2018-11-12T06:41:20.414Z,24.60
2018-11-12T06:44:12.233Z,24.70
2018-11-12T06:47:22.770Z,24.70
2018-11-12T06:50:38.287Z,24.70
2018-11-12T06:53:36.674Z,24.70
2018-11-12T06:56:33.972Z,24.80
2018-11-12T06:59:27.914Z,24.80
2018-11-12T07:04:00.875Z,24.80
2018-11-12T07:06:06.132Z,24.80
2018-11-12T07:09:06.704Z,24.80
2018-11-12T07:12:01.061Z,24.80
2018-11-12T07:15:14.766Z,24.90
2018-11-12T07:18:10.447Z,24.90
2018-11-12T07:21:11.868Z,24.90
2018-11-12T07:24:06.667Z,24.90
2018-11-12T07:27:01.367Z,24.90
2018-11-12T07:29:59.436Z,24.90
2018-11-12T07:32:59.282Z,24.90
2018-11-12T07:35:54.522Z,25.00
2018-11-12T07:38:50.535Z,25.00
2018-11-12T07:41:46.634Z,25.00
2018-11-12T07:44:41.623Z,25.00
2018-11-12T07:47:39.898Z,25.00
2018-11-12T07:50:38.306Z,25.00
2018-11-12T07:53:30.695Z,25.00
2018-11-12T07:56:29.291Z,25.00
2018-11-12T07:59:25.942Z,25.00
2018-11-12T08:02:21.390Z,25.00
2018-11-12T08:05:19.834Z,25.00
2018-11-12T08:08:25.445Z,25.00
2018-11-12T08:11:16.736Z,25.00
2018-11-12T08:14:14.678Z,25.10
2018-11-12T08:17:09.770Z,25.10
2018-11-12T08:23:58.689Z,25.10
2018-11-12T08:27:18.623Z,25.20
2018-11-12T08:30:29.022Z,25.30
2018-11-12T08:33:32.479Z,25.40
2018-11-12T08:36:40.188Z,25.50
2018-11-12T08:39:34.070Z,25.40
2018-11-12T08:42:29.304Z,25.40
2018-11-12T08:45:27.926Z,25.30
2018-11-12T08:48:26.397Z,25.30
2018-11-12T08:51:37.472Z,25.20
2018-11-12T08:54:31.203Z,25.20
2018-11-12T08:57:32.071Z,25.20
2018-11-12T09:00:45.959Z,25.20
2018-11-12T09:03:42.813Z,25.20
2018-11-12T09:06:39.015Z,25.20
2018-11-12T09:09:32.830Z,25.20
2018-11-12T09:12:27.163Z,25.20
2018-11-12T09:15:21.551Z,25.20
2018-11-12T09:18:29.149Z,25.20
2018-11-12T09:21:23.327Z,25.20
2018-11-12T09:24:20.168Z,25.20
2018-11-12T09:27:15.260Z,25.20
2018-11-12T09:30:21.063Z,25.20
2018-11-12T09:33:15.463Z,25.20
2018-11-12T09:36:12.805Z,25.20
2018-11-12T09:39:27.744Z,25.30
2018-11-12T09:42:39.838Z,25.30
2018-11-12T09:45:39.829Z,25.30
2018-11-12T09:48:34.436Z,25.30
2018-11-12T09:51:28.546Z,25.30
2018-11-12T09:54:23.195Z,25.20
2018-11-12T09:57:17.612Z,25.20
2018-11-12T10:00:14.203Z,25.20
2018-11-12T10:03:09.185Z,25.20
2018-11-12T10:06:04.788Z,25.20
2018-11-12T10:08:58.726Z,25.30
2018-11-12T10:11:55.455Z,25.30
2018-11-12T10:14:52.900Z,25.30
2018-11-12T10:17:47.848Z,25.30
2018-11-12T10:20:42.369Z,25.20
2018-11-12T10:23:36.368Z,25.20
2018-11-12T10:26:34.673Z,25.30
2018-11-12T10:29:29.110Z,25.40
2018-11-12T10:32:24.280Z,25.50
2018-11-12T10:35:18.227Z,25.50
2018-11-12T10:38:28.379Z,25.50
2018-11-12T10:41:22.501Z,25.60
2018-11-12T10:44:16.597Z,25.60
2018-11-12T10:47:13.866Z,25.60
2018-11-12T10:50:09.593Z,25.60
2018-11-12T10:53:04.400Z,25.60
2018-11-12T10:56:00.336Z,25.60
2018-11-12T10:58:54.640Z,25.60
2018-11-12T11:02:07.835Z,25.60
2018-11-12T11:05:02.936Z,25.70
2018-11-12T11:07:57.591Z,25.60
2018-11-12T11:10:52.552Z,25.50
2018-11-12T11:13:46.985Z,25.50
2018-11-12T11:16:41.222Z,25.50
2018-11-12T11:19:35.143Z,25.50
2018-11-12T11:22:37.205Z,25.50
2018-11-12T11:25:32.723Z,25.40
2018-11-12T11:28:34.781Z,25.30
2018-11-12T11:31:30.238Z,25.30
2018-11-12T11:34:41.311Z,25.30
2018-11-12T11:38:16.612Z,25.20
2018-11-12T11:41:06.313Z,25.20
2018-11-12T11:44:06.918Z,25.20
2018-11-12T11:47:00.871Z,25.20
2018-11-12T11:49:55.773Z,25.20
2018-11-12T11:52:53.841Z,25.20
2018-11-12T11:55:51.203Z,25.20
2018-11-12T11:58:45.399Z,25.20
2018-11-12T12:01:44.406Z,25.20
2018-11-12T12:04:38.266Z,25.30
2018-11-12T12:07:32.748Z,25.30
2018-11-12T12:10:29.686Z,25.40
2018-11-12T12:13:28.399Z,25.40
2018-11-12T12:16:25.415Z,25.40
2018-11-12T12:19:22.161Z,25.50
2018-11-12T12:22:16.253Z,25.50
2018-11-12T12:25:14.382Z,25.50
2018-11-12T12:28:09.665Z,25.50
2018-11-12T12:31:05.475Z,25.60
2018-11-12T12:33:59.732Z,25.60
2018-11-12T12:36:54.048Z,25.50
2018-11-12T12:39:48.855Z,25.50
2018-11-12T12:42:43.408Z,25.60
2018-11-12T12:45:37.701Z,25.60
2018-11-12T12:48:31.568Z,25.60
2018-11-12T12:51:25.433Z,25.60
2018-11-12T12:54:20.072Z,25.60
2018-11-12T12:57:25.638Z,25.50
2018-11-12T13:00:16.125Z,25.50
2018-11-12T13:03:10.637Z,25.50
2018-11-12T13:06:06.666Z,25.60
2018-11-12T13:09:00.708Z,25.50
2018-11-12T13:12:00.335Z,25.60
2018-11-12T13:14:54.619Z,25.70
2018-11-12T13:17:49.205Z,25.60
2018-11-12T13:20:44.218Z,25.60
2018-11-12T13:23:38.280Z,25.60
2018-11-12T13:26:36.690Z,25.60
2018-11-12T13:29:32.728Z,25.60
2018-11-12T13:32:26.377Z,25.60
2018-11-12T13:35:23.562Z,25.60
2018-11-12T13:38:17.294Z,25.60
2018-11-12T13:41:10.954Z,25.60
2018-11-12T13:47:01.070Z,25.60
2018-11-12T13:49:57.224Z,25.50
2018-11-12T13:52:51.418Z,25.50
2018-11-12T13:55:45.060Z,25.40
2018-11-12T13:58:38.726Z,25.30
2018-11-12T14:01:32.711Z,25.20
2018-11-12T14:04:26.580Z,25.20
2018-11-12T14:07:20.423Z,25.20
2018-11-12T14:10:16.381Z,25.20
2018-11-12T14:13:10.565Z,25.20
2018-11-12T14:16:04.318Z,25.10
2018-11-12T14:18:59.855Z,25.10
2018-11-12T14:21:53.919Z,25.10
2018-11-12T14:24:48.244Z,25.10
2018-11-12T14:27:42.241Z,25.00
2018-11-12T14:30:37.918Z,25.00
2018-11-12T14:33:32.107Z,25.00
2018-11-12T14:36:27.822Z,25.00
2018-11-12T14:39:21.993Z,25.00
2018-11-12T14:42:16.292Z,25.00
2018-11-12T14:45:14.741Z,25.00
2018-11-12T14:48:09.585Z,25.00
2018-11-12T14:51:03.598Z,25.00
2018-11-12T14:53:57.949Z,24.90
2018-11-12T14:56:53.537Z,25.00
2018-11-12T14:59:49.176Z,24.90
2018-11-12T15:02:46.545Z,24.90
2018-11-12T15:05:40.204Z,24.90
2018-11-12T15:08:35.310Z,24.90
2018-11-12T15:11:28.826Z,24.90
2018-11-12T15:14:25.520Z,24.90
2018-11-12T15:17:19.604Z,24.90
2018-11-12T15:20:18.405Z,24.90
2018-11-12T15:23:12.419Z,24.90
2018-11-12T15:26:05.957Z,24.90
2018-11-12T15:28:59.613Z,24.90
2018-11-12T15:31:53.591Z,24.90
2018-11-12T15:34:49.004Z,24.80
2018-11-12T15:37:45.669Z,24.80
2018-11-12T15:40:39.316Z,24.80
2018-11-12T15:43:33.517Z,24.80
2018-11-12T15:46:28.610Z,24.80
2018-11-12T15:49:22.092Z,24.80
2018-11-12T15:52:16.584Z,24.80
2018-11-12T15:55:13.508Z,24.80
2018-11-12T15:58:07.458Z,24.80
2018-11-12T16:01:01.584Z,24.80
2018-11-12T16:03:55.448Z,24.80
2018-11-12T16:06:49.019Z,24.80
2018-11-12T16:09:45.461Z,24.80
2018-11-12T16:12:39.027Z,24.80
2018-11-12T16:15:32.898Z,24.80
2018-11-12T16:18:26.243Z,24.70
2018-11-12T16:21:20.340Z,24.80
2018-11-12T16:24:14.222Z,24.80
2018-11-12T16:27:08.103Z,24.80
2018-11-12T16:30:04.845Z,24.70
2018-11-12T16:32:58.431Z,24.80
2018-11-12T16:35:51.747Z,24.70
2018-11-12T16:38:45.239Z,24.80
2018-11-12T16:41:38.808Z,24.80
2018-11-12T16:44:32.484Z,24.80
2018-11-12T16:47:26.134Z,24.70
2018-11-12T16:50:20.340Z,24.70
2018-11-12T16:53:14.112Z,24.70
2018-11-12T16:56:07.781Z,24.70
2018-11-12T16:59:05.218Z,24.70
2018-11-12T17:01:55.088Z,24.70
2018-11-12T17:04:48.771Z,24.70
2018-11-12T17:07:42.776Z,24.70
2018-11-12T17:10:36.550Z,24.70
2018-11-12T17:13:30.732Z,24.70
2018-11-12T17:16:24.499Z,24.70
2018-11-12T17:19:18.392Z,24.70
2018-11-12T17:22:11.747Z,24.70
2018-11-12T17:25:05.773Z,24.60
2018-11-12T17:27:59.396Z,24.70
2018-11-12T17:30:53.374Z,24.70
2018-11-12T17:33:47.458Z,24.70
2018-11-12T17:36:49.124Z,24.60
2018-11-12T17:39:42.993Z,24.70
2018-11-12T17:42:36.772Z,24.70
2018-11-12T17:45:34.226Z,24.60
2018-11-12T17:48:28.103Z,24.70
2018-11-12T17:51:22.184Z,24.70
2018-11-12T17:54:16.115Z,24.70
2018-11-12T17:57:11.270Z,24.70
2018-11-12T18:00:08.836Z,24.70
2018-11-12T18:03:05.146Z,24.70
2018-11-12T18:05:58.840Z,24.60
2018-11-12T18:08:52.819Z,24.60
2018-11-12T18:11:47.205Z,24.60
2018-11-12T18:14:46.404Z,24.60
2018-11-12T18:17:40.485Z,24.60
2018-11-12T18:20:34.157Z,24.60
2018-11-12T18:23:27.726Z,24.60
2018-11-12T18:26:22.115Z,24.60
2018-11-12T18:29:15.997Z,24.60
2018-11-12T18:32:09.867Z,24.60
2018-11-12T18:35:03.432Z,24.60
2018-11-12T18:37:57.463Z,24.60
2018-11-12T18:40:53.387Z,24.60
2018-11-12T18:43:44.271Z,24.60
2018-11-12T18:46:37.919Z,24.60
2018-11-12T18:49:32.182Z,24.60
2018-11-12T18:52:26.394Z,24.60
2018-11-12T18:55:20.161Z,24.60
2018-11-12T18:58:16.498Z,24.60
2018-11-12T19:01:10.664Z,24.60
2018-11-12T19:04:04.556Z,24.60
2018-11-12T19:06:58.440Z,24.60
2018-11-12T19:09:52.306Z,24.60
2018-11-12T19:12:46.803Z,24.60
2018-11-12T19:15:41.188Z,24.60
2018-11-12T19:18:34.652Z,24.60
2018-11-12T19:21:28.930Z,24.60
2018-11-12T19:24:22.722Z,24.50
2018-11-12T19:27:16.661Z,24.60
2018-11-12T19:30:25.454Z,24.50
2018-11-12T19:33:19.397Z,24.60
2018-11-12T19:36:12.761Z,24.60
2018-11-12T19:39:06.328Z,24.60
2018-11-12T19:41:59.794Z,24.60
2018-11-12T19:44:53.159Z,24.50
2018-11-12T19:47:47.343Z,24.50
2018-11-12T19:50:41.221Z,24.50
2018-11-12T19:53:34.935Z,24.50
2018-11-12T19:56:29.083Z,24.50
2018-11-12T19:59:22.881Z,24.50
2018-11-12T20:02:16.421Z,24.50
2018-11-12T20:05:10.191Z,24.50
2018-11-12T20:08:04.215Z,24.50
2018-11-12T20:10:58.259Z,24.50
2018-11-12T20:13:53.972Z,24.50
2018-11-12T20:16:47.952Z,24.50
2018-11-12T20:19:41.928Z,24.50
2018-11-12T20:22:37.755Z,24.50
2018-11-12T20:25:31.300Z,24.50
2018-11-12T20:28:25.099Z,24.50
2018-11-12T20:31:19.180Z,24.50
2018-11-12T20:34:13.330Z,24.50
2018-11-12T20:37:06.625Z,24.50
2018-11-12T20:40:00.500Z,24.50
2018-11-12T20:42:54.177Z,24.50
2018-11-12T20:45:48.047Z,24.50
2018-11-12T20:48:42.023Z,24.50
2018-11-12T20:51:38.360Z,24.50
2018-11-12T20:54:38.586Z,24.50
2018-11-12T20:57:32.565Z,24.50
2018-11-12T21:00:27.669Z,24.50
2018-11-12T21:03:21.352Z,24.40
2018-11-12T21:06:15.320Z,24.40
2018-11-12T21:09:12.065Z,24.40
2018-11-12T21:12:06.042Z,24.40
2018-11-12T21:14:59.610Z,24.40
2018-11-12T21:17:53.385Z,24.40
2018-11-12T21:20:46.852Z,24.40
2018-11-12T21:23:40.523Z,24.40
2018-11-12T21:26:34.408Z,24.40
2018-11-12T21:29:34.262Z,24.40
2018-11-12T21:32:27.477Z,24.40
2018-11-12T21:35:21.158Z,24.40
2018-11-12T21:38:14.717Z,24.40
2018-11-12T21:41:09.562Z,24.40
2018-11-12T21:44:03.509Z,24.40
2018-11-12T21:46:57.991Z,24.40
2018-11-12T21:49:52.015Z,24.40
2018-11-12T21:52:45.438Z,24.40
2018-11-12T21:55:39.206Z,24.40
2018-11-12T21:58:32.908Z,24.40
2018-11-12T22:01:26.959Z,24.40
2018-11-12T22:04:21.141Z,24.40
2018-11-12T22:07:20.504Z,24.30
2018-11-12T22:10:16.812Z,24.40
2018-11-12T22:13:12.398Z,24.40
2018-11-12T22:16:05.967Z,24.40
2018-11-12T22:19:04.567Z,24.40
2018-11-12T22:21:59.570Z,24.40
2018-11-12T22:24:53.639Z,24.40
2018-11-12T22:27:47.910Z,24.30
2018-11-12T22:30:43.854Z,24.30
2018-11-12T22:33:37.532Z,24.30
2018-11-12T22:36:31.304Z,24.40
2018-11-12T22:39:25.994Z,24.30
2018-11-12T22:42:20.081Z,24.40
2018-11-12T22:45:16.619Z,24.30
2018-11-12T22:48:10.813Z,24.30
2018-11-12T22:51:07.201Z,24.30
2018-11-12T22:53:58.278Z,24.30
2018-11-12T22:56:52.015Z,24.30
2018-11-12T22:59:46.033Z,24.30
2018-11-12T23:02:40.176Z,24.30
2018-11-12T23:05:34.051Z,24.30
2018-11-12T23:08:27.653Z,24.30
2018-11-12T23:11:24.367Z,24.30
2018-11-12T23:14:18.737Z,24.30
2018-11-12T23:17:12.608Z,24.30
2018-11-12T23:20:06.211Z,24.20
2018-11-12T23:23:02.434Z,24.20
2018-11-12T23:25:56.309Z,24.30
2018-11-12T23:28:50.395Z,24.30
2018-11-12T23:31:43.958Z,24.20
2018-11-12T23:34:38.346Z,24.30
2018-11-12T23:37:32.435Z,24.30
2018-11-12T23:40:28.455Z,24.20
2018-11-12T23:43:21.919Z,24.30
2018-11-12T23:46:16.509Z,24.30
2018-11-12T23:49:13.054Z,24.30
2018-11-12T23:52:07.029Z,24.30
2018-11-12T23:55:02.158Z,24.30
2018-11-12T23:57:56.068Z,24.30
